Time;durP1;ratioP1;P1;durP2;ratioP2;P2;SDS_P1;SDS_P2;PMS_P1;PMS_P2;Temp;Humidity;BMP_temperature;BMP_pressure;BME280_temperature;BME280_humidity;BME280_pressure;Samples;Min_cycle;Max_cycle;Signal;HPM_P1;HPM_P2
2021/04/13 00:09:20;;;;;;;;;;;;;;;;;;5007587;23;20369;-59
2021/04/13 00:11:46;;;;;;;;;;;;;;;;;;5034697;28;20145;-58
2021/04/13 00:14:12;;;;;;;;;;;;;;;;;;5039858;28;19908;-58
2021/04/13 00:16:38;;;;;;;;;;;;;;;;;;5045626;28;19912;-58
2021/04/13 00:19:04;;;;;;;;;;;;;;;;;;5043304;28;19908;-59
2021/04/13 00:21:30;;;;;;;;;;;;;;;;;;5052232;28;19912;-59
2021/04/13 00:23:56;;;;;;;;;;;;;;;;;;5052295;28;19909;-59
2021/04/13 00:26:22;;;;;;;;;;;;;;;;;;5038036;28;19913;-60
2021/04/13 00:28:48;;;;;;;;;;;;;;;;;;5052045;28;19916;-58
2021/04/13 00:31:14;;;;;;;;;;;;;;;;;;5052359;28;19905;-57
2021/04/13 00:33:40;;;;;;;;;;;;;;;;;;5052210;28;20298;-58
2021/04/13 00:36:09;;;;;;;;;;;;;;;;;;5052555;28;19905;-59
2021/04/13 00:38:35;;;;;;;;;;;;;;;;;;5056558;28;19912;-59
2021/04/13 00:41:01;;;;;;;;;;;;;;;;;;5064092;28;19916;-59
2021/04/13 00:43:27;;;;;;;;;;;;;;;;;;5042194;28;19909;-59
2021/04/13 00:45:53;;;;;;;;;;;;;;;;;;5056189;28;20285;-58
2021/04/13 00:48:18;;;;;;;;;;;;;;;;;;5055987;28;19944;-58
2021/04/13 00:50:45;;;;;;;;;;;;;;;;;;5056000;28;20368;-59
2021/04/13 00:53:11;;;;;;;;;;;;;;;;;;5056406;28;20281;-59
2021/04/13 00:55:37;;;;;;;;;;;;;;;;;;5055839;28;19909;-59
2021/04/13 00:58:04;;;;;;;;;;;;;;;;;;5053258;28;19919;-59
2021/04/13 01:00:30;;;;;;;;;;;;;;;;;;5035459;28;19916;-59
2021/04/13 01:02:56;;;;;;;;;;;;;;;;;;5039608;28;19909;-58
2021/04/13 01:05:22;;;;;;;;;;;;;;;;;;5050299;28;20357;-59
2021/04/13 01:07:48;;;;;;;;;;;;;;;;;;5047692;28;19935;-58
2021/04/13 01:10:14;;;;;;;;;;;;;;;;;;5075222;28;20003;-59
2021/04/13 01:12:40;;;;;;;;;;;;;;;;;;5075647;28;19904;-59
2021/04/13 01:15:05;;;;;;;;;;;;;;;;;;5073080;28;19905;-59
2021/04/13 01:17:31;;;;;;;;;;;;;;;;;;5064687;28;20254;-58
2021/04/13 01:19:57;;;;;;;;;;;;;;;;;;5075246;28;19930;-59
2021/04/13 01:22:36;;;;;;;;;;;;;;;;;;5075619;28;19911;-58
2021/04/13 01:25:02;;;;;;;;;;;;;;;;;;5075669;28;19979;-61
2021/04/13 01:27:28;;;;;;;;;;;;;;;;;;5075533;28;19904;-60
2021/04/13 01:29:54;;;;;;;;;;;;;;;;;;5075107;28;19912;-58
2021/04/13 01:32:20;;;;;;;;;;;;;;;;;;5070995;28;19924;-58
2021/04/13 01:34:52;;;;;;;;;;;;;;;;;;5044916;28;19940;-58
2021/04/13 01:45:16;;;;;;;;;;;;;;;;;;5199699;23;19975;-58
2021/04/13 01:47:42;;;;;;;;;;;;;;;;;;5054750;28;19908;-58
2021/04/13 01:50:08;;;;;;;;;;;;;;;;;;5048349;28;19911;-57
2021/04/13 01:52:34;;;;;;;;;;;;;;;;;;5056603;28;19905;-58
2021/04/13 01:55:00;;;;;;;;;;;;;;;;;;5054824;28;19905;-58
2021/04/13 01:57:26;;;;;;;;;;;;;;;;;;5054789;28;19962;-58
2021/04/13 01:59:52;;;;;;;;;;;;;;;;;;5054637;28;19904;-58
2021/04/13 02:02:18;;;;;;;;;;;;;;;;;;5055069;28;19912;-58
2021/04/13 02:04:45;;;;;;;;;;;;;;;;;;5054522;28;20330;-58
2021/04/13 02:07:21;;;;;;;;;;;;;;;;;;5062087;28;19909;-57
2021/04/13 02:09:51;;;;;;;;;;;;;;;;;;5053651;28;20254;-58
2021/04/13 02:12:17;;;;;;;;;;;;;;;;;;5071430;28;20266;-58
2021/04/13 02:14:43;;;;;;;;;;;;;;;;;;5052665;28;20354;-58
2021/04/13 02:17:09;;;;;;;;;;;;;;;;;;5061493;28;19908;-58
2021/04/13 02:19:35;;;;;;;;;;;;;;;;;;5066538;28;19904;-59
2021/04/13 02:22:00;;;;;;;;;;;;;;;;;;5055595;28;19911;-58
2021/04/13 02:24:26;;;;;;;;;;;;;;;;;;5054044;28;21855;-58
2021/04/13 02:26:52;;;;;;;;;;;;;;;;;;5056010;28;20027;-59
2021/04/13 02:29:18;;;;;;;;;;;;;;;;;;5066145;28;19908;-58
2021/04/13 02:31:47;;;;;;;;;;;;;;;;;;5054086;28;19909;-58
2021/04/13 02:34:13;;;;;;;;;;;;;;;;;;5054280;28;19940;-58
2021/04/13 02:36:39;;;;;;;;;;;;;;;;;;5054624;28;20354;-58
2021/04/13 02:39:05;;;;;;;;;;;;;;;;;;5054112;28;20399;-59
2021/04/13 02:41:31;;;;;;;;;;;;;;;;;;5054193;28;19908;-59
2021/04/13 02:43:59;;;;;;;;;;;;;;;;;;5053324;28;20019;-58
2021/04/13 02:46:24;;;;;;;;;;;;;;;;;;5045622;28;19928;-60
2021/04/13 02:48:51;;;;;;;;;;;;;;;;;;5033957;28;19909;-58
2021/04/13 02:51:16;;;;;;;;;;;;;;;;;;5016261;28;19992;-58
2021/04/13 02:53:43;;;;;;;;;;;;;;;;;;5033889;28;20428;-59
2021/04/13 02:56:09;;;;;;;;;;;;;;;;;;5035149;28;19912;-58
2021/04/13 02:58:35;;;;;;;;;;;;;;;;;;5032634;28;20355;-58
2021/04/13 03:01:00;;;;;;;;;;;;;;;;;;5034223;28;19949;-58
2021/04/13 03:03:26;;;;;;;;;;;;;;;;;;5032194;28;19909;-58
2021/04/13 03:05:52;;;;;;;;;;;;;;;;;;5033645;28;20011;-57
2021/04/13 03:08:18;;;;;;;;;;;;;;;;;;5033346;28;20485;-58
2021/04/13 03:10:44;;;;;;;;;;;;;;;;;;5033483;28;20012;-58
2021/04/13 03:13:10;;;;;;;;;;;;;;;;;;5034023;28;20282;-58
2021/04/13 03:15:36;;;;;;;;;;;;;;;;;;5033084;28;19921;-58
2021/04/13 03:18:02;;;;;;;;;;;;;;;;;;5033636;28;20433;-58
2021/04/13 03:20:28;;;;;;;;;;;;;;;;;;5032961;28;19951;-57
2021/04/13 03:22:54;;;;;;;;;;;;;;;;;;5033438;28;19909;-57
2021/04/13 03:25:20;;;;;;;;;;;;;;;;;;5033085;28;19913;-58
2021/04/13 03:27:46;;;;;;;;;;;;;;;;;;5033302;28;19959;-58
2021/04/13 03:30:12;;;;;;;;;;;;;;;;;;5033205;28;19995;-57
2021/04/13 03:32:38;;;;;;;;;;;;;;;;;;5033197;28;19955;-58
2021/04/13 03:35:04;;;;;;;;;;;;;;;;;;5031719;28;19956;-58
2021/04/13 03:37:30;;;;;;;;;;;;;;;;;;5032858;28;19905;-58
2021/04/13 03:39:56;;;;;;;;;;;;;;;;;;5033778;28;19905;-57
2021/04/13 03:42:22;;;;;;;;;;;;;;;;;;5032936;28;19905;-58
2021/04/13 03:44:48;;;;;;;;;;;;;;;;;;5032739;28;19925;-58
2021/04/13 03:47:14;;;;;;;;;;;;;;;;;;5032661;28;19909;-58
2021/04/13 03:49:40;;;;;;;;;;;;;;;;;;5033571;28;19912;-59
2021/04/13 03:52:05;;;;;;;;;;;;;;;;;;5032580;28;19912;-58
2021/04/13 03:54:31;;;;;;;;;;;;;;;;;;5033422;28;19911;-59
2021/04/13 03:56:59;;;;;;;;;;;;;;;;;;5032698;28;19913;-58
2021/04/13 03:59:25;;;;;;;;;;;;;;;;;;5023446;28;19906;-58
2021/04/13 04:01:51;;;;;;;;;;;;;;;;;;5027855;28;19912;-59
2021/04/13 04:04:17;;;;;;;;;;;;;;;;;;5035467;28;19916;-58
2021/04/13 04:06:48;;;;;;;;;;;;;;;;;;5035363;28;19909;-60
2021/04/13 04:09:14;;;;;;;;;;;;;;;;;;5034824;28;19919;-58
2021/04/13 04:11:40;;;;;;;;;;;;;;;;;;5035302;28;20324;-58
2021/04/13 04:14:06;;;;;;;;;;;;;;;;;;5051949;28;19912;-58
2021/04/13 04:16:33;;;;;;;;;;;;;;;;;;5048659;28;19905;-59
2021/04/13 04:18:59;;;;;;;;;;;;;;;;;;5035877;28;20063;-59
2021/04/13 04:21:25;;;;;;;;;;;;;;;;;;5028438;28;20007;-59
2021/04/13 04:23:51;;;;;;;;;;;;;;;;;;5033365;28;19912;-60
2021/04/13 04:26:17;;;;;;;;;;;;;;;;;;5032474;28;19913;-57
2021/04/13 04:28:43;;;;;;;;;;;;;;;;;;5038547;28;19909;-58
2021/04/13 04:31:09;;;;;;;;;;;;;;;;;;5040510;28;19912;-57
2021/04/13 04:33:35;;;;;;;;;;;;;;;;;;5032181;28;19905;-57
2021/04/13 04:36:01;;;;;;;;;;;;;;;;;;5032093;28;20248;-58
2021/04/13 04:38:27;;;;;;;;;;;;;;;;;;5032527;28;19959;-58
2021/04/13 04:40:53;;;;;;;;;;;;;;;;;;5032379;28;20321;-58
2021/04/13 04:43:21;;;;;;;;;;;;;;;;;;5032048;28;20359;-59
2021/04/13 04:45:47;;;;;;;;;;;;;;;;;;5029109;28;19921;-58
2021/04/13 04:48:13;;;;;;;;;;;;;;;;;;5032571;28;19999;-57
2021/04/13 04:50:39;;;;;;;;;;;;;;;;;;5031646;28;19951;-58
2021/04/13 04:53:05;;;;;;;;;;;;;;;;;;5031994;28;20346;-58
2021/04/13 04:55:31;;;;;;;;;;;;;;;;;;5032294;28;19905;-57
2021/04/13 04:57:57;;;;;;;;;;;;;;;;;;5032202;28;19916;-58
2021/04/13 05:00:23;;;;;;;;;;;;;;;;;;5024603;28;19912;-58
2021/04/13 05:02:49;;;;;;;;;;;;;;;;;;5031822;28;20289;-58
2021/04/13 05:05:14;;;;;;;;;;;;;;;;;;5032060;28;20363;-58
2021/04/13 05:07:40;;;;;;;;;;;;;;;;;;5031731;28;19912;-58
2021/04/13 05:10:06;;;;;;;;;;;;;;;;;;5032307;28;19912;-58
2021/04/13 05:12:32;;;;;;;;;;;;;;;;;;5032082;28;19909;-58
2021/04/13 05:14:58;;;;;;;;;;;;;;;;;;5023938;28;19936;-58
2021/04/13 05:17:25;;;;;;;;;;;;;;;;;;5031793;28;20366;-58
2021/04/13 05:19:50;;;;;;;;;;;;;;;;;;5032384;28;19905;-59
2021/04/13 05:22:16;;;;;;;;;;;;;;;;;;5031770;28;19911;-60
2021/04/13 05:24:42;;;;;;;;;;;;;;;;;;5031779;28;19915;-59
2021/04/13 05:27:08;;;;;;;;;;;;;;;;;;5033521;28;19921;-58
2021/04/13 05:29:34;;;;;;;;;;;;;;;;;;5035233;28;20366;-59
2021/04/13 05:32:00;;;;;;;;;;;;;;;;;;5035899;28;19909;-59
2021/04/13 05:34:26;;;;;;;;;;;;;;;;;;5034886;28;19940;-58
2021/04/13 05:36:52;;;;;;;;;;;;;;;;;;5034373;28;19905;-58
2021/04/13 05:39:20;;;;;;;;;;;;;;;;;;5034938;28;19909;-57
2021/04/13 05:41:45;;;;;;;;;;;;;;;;;;5035510;28;19956;-58
2021/04/13 05:44:11;;;;;;;;;;;;;;;;;;5038873;28;19952;-59
2021/04/13 05:46:37;;;;;;;;;;;;;;;;;;5053581;28;19916;-58
2021/04/13 05:49:03;;;;;;;;;;;;;;;;;;5051528;28;19958;-58
2021/04/13 05:51:29;;;;;;;;;;;;;;;;;;5040543;28;20287;-58
2021/04/13 05:53:55;;;;;;;;;;;;;;;;;;5035083;28;19944;-58
2021/04/13 05:56:21;;;;;;;;;;;;;;;;;;5029603;28;20307;-58
2021/04/13 05:58:49;;;;;;;;;;;;;;;;;;5026906;28;19909;-58
2021/04/13 06:01:15;;;;;;;;;;;;;;;;;;5031416;28;19928;-58
2021/04/13 06:03:41;;;;;;;;;;;;;;;;;;5034181;28;20434;-59
2021/04/13 06:06:07;;;;;;;;;;;;;;;;;;5034305;28;19956;-58
2021/04/13 06:08:32;;;;;;;;;;;;;;;;;;5029085;28;19959;-58
2021/04/13 06:10:58;;;;;;;;;;;;;;;;;;5047714;28;19912;-59
2021/04/13 06:13:24;;;;;;;;;;;;;;;;;;5053880;28;19905;-60
2021/04/13 06:15:51;;;;;;;;;;;;;;;;;;5046888;28;19934;-58
2021/04/13 06:18:17;;;;;;;;;;;;;;;;;;5054134;28;19955;-58
2021/04/13 06:20:42;;;;;;;;;;;;;;;;;;5045757;28;19945;-59
2021/04/13 06:23:08;;;;;;;;;;;;;;;;;;5033977;28;20680;-71
2021/04/13 06:25:34;;;;;;;;;;;;;;;;;;5029706;28;19957;-58
2021/04/13 06:28:00;;;;;;;;;;;;;;;;;;5047066;28;19909;-58
2021/04/13 06:30:26;;;;;;;;;;;;;;;;;;5054226;28;19905;-59
2021/04/13 06:32:52;;;;;;;;;;;;;;;;;;5054230;28;19905;-59
2021/04/13 06:35:18;;;;;;;;;;;;;;;;;;5054646;28;19908;-60
2021/04/13 06:37:44;;;;;;;;;;;;;;;;;;5053411;28;20359;-58
2021/04/13 06:40:10;;;;;;;;;;;;;;;;;;5053716;28;19904;-57
2021/04/13 06:42:36;;;;;;;;;;;;;;;;;;5054500;28;19905;-59
2021/04/13 06:45:03;;;;;;;;;;;;;;;;;;5053564;28;19921;-59
2021/04/13 06:47:29;;;;;;;;;;;;;;;;;;5053936;28;19908;-59
2021/04/13 06:49:55;;;;;;;;;;;;;;;;;;5047268;28;19913;-59
2021/04/13 06:52:21;;;;;;;;;;;;;;;;;;5030502;28;20267;-58
2021/04/13 06:54:47;;;;;;;;;;;;;;;;;;5036375;28;20333;-59
2021/04/13 06:57:12;;;;;;;;;;;;;;;;;;5028852;28;19909;-59
2021/04/13 06:59:38;;;;;;;;;;;;;;;;;;5029619;28;19951;-58
2021/04/13 07:02:04;;;;;;;;;;;;;;;;;;5045814;28;20007;-60
2021/04/13 07:04:30;;;;;;;;;;;;;;;;;;5048851;28;19999;-59
2021/04/13 07:06:56;;;;;;;;;;;;;;;;;;5043782;28;19909;-58
2021/04/13 07:09:22;;;;;;;;;;;;;;;;;;5050990;28;20301;-60
2021/04/13 07:11:48;;;;;;;;;;;;;;;;;;5028624;28;19909;-60
2021/04/13 07:14:14;;;;;;;;;;;;;;;;;;5047906;28;19909;-60
2021/04/13 07:16:40;;;;;;;;;;;;;;;;;;5053310;28;19908;-60
2021/04/13 07:19:06;;;;;;;;;;;;;;;;;;5053083;28;19905;-60
2021/04/13 07:21:32;;;;;;;;;;;;;;;;;;5052665;28;19940;-60
2021/04/13 07:23:58;;;;;;;;;;;;;;;;;;5050565;28;19952;-59
2021/04/13 07:26:24;;;;;;;;;;;;;;;;;;5052772;28;20360;-61
2021/04/13 07:28:50;;;;;;;;;;;;;;;;;;5044670;28;19909;-60
2021/04/13 07:31:16;;;;;;;;;;;;;;;;;;5026598;28;19940;-61
2021/04/13 07:33:42;;;;;;;;;;;;;;;;;;5052947;28;19912;-58
2021/04/13 07:36:08;;;;;;;;;;;;;;;;;;5053031;28;19962;-60
2021/04/13 07:38:34;;;;;;;;;;;;;;;;;;5052544;28;19904;-62
2021/04/13 07:41:00;;;;;;;;;;;;;;;;;;5049198;28;19963;-61
2021/04/13 07:43:25;;;;;;;;;;;;;;;;;;5041672;28;19905;-60
2021/04/13 07:45:51;;;;;;;;;;;;;;;;;;5021877;28;19925;-59
2021/04/13 07:48:18;;;;;;;;;;;;;;;;;;5016611;28;19913;-60
2021/04/13 07:50:44;;;;;;;;;;;;;;;;;;5017871;28;19960;-60
2021/04/13 07:53:10;;;;;;;;;;;;;;;;;;5034464;28;19951;-60
2021/04/13 07:55:35;;;;;;;;;;;;;;;;;;5033396;28;20010;-60
2021/04/13 07:58:01;;;;;;;;;;;;;;;;;;5030775;28;20413;-60
2021/04/13 08:00:27;;;;;;;;;;;;;;;;;;5031402;28;20290;-60
2021/04/13 08:02:53;;;;;;;;;;;;;;;;;;5022968;28;19966;-60
2021/04/13 08:05:19;;;;;;;;;;;;;;;;;;5012635;28;19985;-62
2021/04/13 08:07:45;;;;;;;;;;;;;;;;;;5017931;28;19937;-60
2021/04/13 08:10:11;;;;;;;;;;;;;;;;;;5014576;28;20339;-59
2021/04/13 08:12:37;;;;;;;;;;;;;;;;;;5016917;28;19909;-61
2021/04/13 08:15:03;;;;;;;;;;;;;;;;;;5014178;28;20352;-60
2021/04/13 08:17:29;;;;;;;;;;;;;;;;;;5019231;28;20003;-59
2021/04/13 08:19:55;;;;;;;;;;;;;;;;;;5029594;28;19940;-62
2021/04/13 08:22:21;;;;;;;;;;;;;;;;;;5026607;28;19909;-67
2021/04/13 08:24:47;;;;;;;;;;;;;;;;;;5031416;28;19920;-63
2021/04/13 08:27:13;;;;;;;;;;;;;;;;;;5031692;28;19913;-64
2021/04/13 08:29:38;;;;;;;;;;;;;;;;;;5031253;28;19920;-61
2021/04/13 08:34:49;;;;;;;;;;;;;;;;;;5027940;28;19963;-61
2021/04/13 08:37:15;;;;;;;;;;;;;;;;;;5015471;28;19913;-58
2021/04/13 08:39:42;;;;;;;;;;;;;;;;;;5024822;28;19913;-66
2021/04/13 08:42:08;;;;;;;;;;;;;;;;;;5009049;28;19920;-61
2021/04/13 08:44:35;;;;;;;;;;;;;;;;;;5009914;28;20134;-63
2021/04/13 08:47:02;;;;;;;;;;;;;;;;;;5008929;28;19921;-64
2021/04/13 08:49:28;;;;;;;;;;;;;;;;;;5025939;28;20435;-63
2021/04/13 08:51:54;;;;;;;;;;;;;;;;;;5029548;28;19949;-62
2021/04/13 08:54:20;;;;;;;;;;;;;;;;;;5027471;28;19936;-68
2021/04/13 08:56:46;;;;;;;;;;;;;;;;;;5028838;28;19931;-60
2021/04/13 08:59:12;;;;;;;;;;;;;;;;;;5028144;28;19909;-62
2021/04/13 09:01:40;;;;;;;;;;;;;;;;;;5030603;28;19983;-61
2021/04/13 09:04:08;;;;;;;;;;;;;;;;;;5032854;28;19909;-61
2021/04/13 09:06:37;;;;;;;;;;;;;;;;;;5032541;28;19924;-58
2021/04/13 09:09:03;;;;;;;;;;;;;;;;;;5033046;28;19905;-62
2021/04/13 09:11:29;;;;;;;;;;;;;;;;;;5023897;28;19944;-59
2021/04/13 09:13:55;;;;;;;;;;;;;;;;;;5014891;28;19913;-61
2021/04/13 09:16:21;;;;;;;;;;;;;;;;;;5014342;28;19953;-62
2021/04/13 09:18:47;;;;;;;;;;;;;;;;;;5019100;28;19959;-59
2021/04/13 09:21:13;;;;;;;;;;;;;;;;;;5030256;28;19917;-59
2021/04/13 09:23:39;;;;;;;;;;;;;;;;;;5032608;28;19905;-61
2021/04/13 09:26:05;;;;;;;;;;;;;;;;;;5031374;28;19921;-61
2021/04/13 09:28:31;;;;;;;;;;;;;;;;;;5030166;28;19911;-63
2021/04/13 09:30:57;;;;;;;;;;;;;;;;;;5033210;28;19987;-60
2021/04/13 09:33:22;;;;;;;;;;;;;;;;;;5034777;28;19952;-61
2021/04/13 09:35:48;;;;;;;;;;;;;;;;;;5029113;28;19913;-61
2021/04/13 09:38:14;;;;;;;;;;;;;;;;;;5018167;28;20371;-62
2021/04/13 09:40:40;;;;;;;;;;;;;;;;;;5018736;28;19912;-61
2021/04/13 09:43:06;;;;;;;;;;;;;;;;;;5017840;28;19905;-62
2021/04/13 09:45:32;;;;;;;;;;;;;;;;;;5017438;28;19928;-62
2021/04/13 09:47:58;;;;;;;;;;;;;;;;;;5015866;28;20267;-61
2021/04/13 09:50:24;;;;;;;;;;;;;;;;;;5014989;28;20378;-64
2021/04/13 09:52:50;;;;;;;;;;;;;;;;;;5014923;28;20382;-62
2021/04/13 09:55:17;;;;;;;;;;;;;;;;;;5042348;28;20300;-65
2021/04/13 09:57:43;;;;;;;;;;;;;;;;;;5041727;28;20007;-65
2021/04/13 10:00:09;;;;;;;;;;;;;;;;;;5016943;28;19956;-66
2021/04/13 10:02:35;;;;;;;;;;;;;;;;;;5017474;28;19905;-66
2021/04/13 10:05:01;;;;;;;;;;;;;;;;;;5019541;28;19917;-66
2021/04/13 10:07:27;;;;;;;;;;;;;;;;;;5010030;28;20010;-66
2021/04/13 10:09:53;;;;;;;;;;;;;;;;;;5016512;28;19909;-66
2021/04/13 10:12:19;;;;;;;;;;;;;;;;;;5017796;28;19912;-65
2021/04/13 10:14:44;;;;;;;;;;;;;;;;;;5027222;28;19927;-64
2021/04/13 10:17:10;;;;;;;;;;;;;;;;;;5034383;28;19904;-64
2021/04/13 10:19:36;;;;;;;;;;;;;;;;;;5034561;28;20334;-64
2021/04/13 10:22:02;;;;;;;;;;;;;;;;;;5034482;28;20065;-64
2021/04/13 10:24:28;;;;;;;;;;;;;;;;;;5034182;28;19952;-64
2021/04/13 10:26:54;;;;;;;;;;;;;;;;;;5034257;28;19948;-64
2021/04/13 10:29:20;;;;;;;;;;;;;;;;;;5032092;28;19948;-64
2021/04/13 10:31:46;;;;;;;;;;;;;;;;;;5015870;28;19956;-64
2021/04/13 10:34:12;;;;;;;;;;;;;;;;;;5016215;28;19936;-64
2021/04/13 10:36:38;;;;;;;;;;;;;;;;;;5014205;28;19967;-64
2021/04/13 10:39:04;;;;;;;;;;;;;;;;;;5011915;28;19909;-65
2021/04/13 10:41:30;;;;;;;;;;;;;;;;;;5021663;28;19920;-65
2021/04/13 10:43:55;;;;;;;;;;;;;;;;;;5033409;28;19917;-64
2021/04/13 10:46:21;;;;;;;;;;;;;;;;;;5019857;28;19917;-66
2021/04/13 10:48:48;;;;;;;;;;;;;;;;;;5028129;28;20012;-64
2021/04/13 10:51:14;;;;;;;;;;;;;;;;;;5033013;28;20299;-63
2021/04/13 10:53:40;;;;;;;;;;;;;;;;;;5033811;28;19912;-64
2021/04/13 10:56:07;;;;;;;;;;;;;;;;;;5032418;28;19905;-63
2021/04/13 10:58:33;;;;;;;;;;;;;;;;;;5033488;28;19915;-65
2021/04/13 11:00:59;;;;;;;;;;;;;;;;;;5013814;28;19988;-63
2021/04/13 11:03:25;;;;;;;;;;;;;;;;;;5022198;28;19944;-63
2021/04/13 11:05:51;;;;;;;;;;;;;;;;;;5020633;28;20347;-63
2021/04/13 11:08:17;;;;;;;;;;;;;;;;;;5035787;28;19931;-62
2021/04/13 11:10:44;;;;;;;;;;;;;;;;;;5053289;28;19936;-63
2021/04/13 11:13:10;;;;;;;;;;;;;;;;;;5045745;28;19909;-63
2021/04/13 11:15:36;;;;;;;;;;;;;;;;;;5037636;28;20003;-63
2021/04/13 11:18:02;;;;;;;;;;;;;;;;;;5025308;28;20021;-63
2021/04/13 11:20:28;;;;;;;;;;;;;;;;;;5029376;28;20032;-59
2021/04/13 11:22:54;;;;;;;;;;;;;;;;;;5022039;28;20403;-59
2021/04/13 11:25:20;;;;;;;;;;;;;;;;;;5046491;28;19962;-59
2021/04/13 11:27:46;;;;;;;;;;;;;;;;;;5032827;28;20314;-60
2021/04/13 11:30:12;;;;;;;;;;;;;;;;;;5032932;28;19909;-59
2021/04/13 11:32:37;;;;;;;;;;;;;;;;;;5051090;28;19913;-58
2021/04/13 11:35:03;;;;;;;;;;;;;;;;;;5053208;28;20377;-58
2021/04/13 11:37:29;;;;;;;;;;;;;;;;;;5053290;28;19905;-59
2021/04/13 11:39:55;;;;;;;;;;;;;;;;;;5049541;28;19912;-60
2021/04/13 11:42:21;;;;;;;;;;;;;;;;;;5033455;28;19992;-62
2021/04/13 11:44:48;;;;;;;;;;;;;;;;;;5034817;28;20279;-59
2021/04/13 11:47:14;;;;;;;;;;;;;;;;;;5031219;28;19916;-60
2021/04/13 11:49:42;;;;;;;;;;;;;;;;;;5012417;28;19905;-64
2021/04/13 11:52:07;;;;;;;;;;;;;;;;;;5032022;28;19913;-63
2021/04/13 11:54:33;;;;;;;;;;;;;;;;;;5033520;28;19920;-60
2021/04/13 11:56:59;;;;;;;;;;;;;;;;;;5029791;28;19913;-63
2021/04/13 11:59:25;;;;;;;;;;;;;;;;;;5028923;28;19909;-61
2021/04/13 12:01:55;;;;;;;;;;;;;;;;;;5028472;28;19915;-62
2021/04/13 12:04:21;;;;;;;;;;;;;;;;;;5028893;28;20271;-63
2021/04/13 12:06:47;;;;;;;;;;;;;;;;;;5021059;28;19924;-60
2021/04/13 12:09:13;;;;;;;;;;;;;;;;;;5026672;28;19913;-65
2021/04/13 12:11:39;;;;;;;;;;;;;;;;;;5019442;28;19916;-71
2021/04/13 12:14:05;;;;;;;;;;;;;;;;;;5016261;28;20004;-60
2021/04/13 12:16:30;;;;;;;;;;;;;;;;;;5016176;28;19913;-60
2021/04/13 12:18:56;;;;;;;;;;;;;;;;;;5027734;28;19905;-59
2021/04/13 12:21:23;;;;;;;;;;;;;;;;;;5021255;28;19912;-57
2021/04/13 12:23:48;;;;;;;;;;;;;;;;;;5022529;28;19948;-58
2021/04/13 12:26:14;;;;;;;;;;;;;;;;;;5029810;28;19971;-58
2021/04/13 12:28:43;;;;;;;;;;;;;;;;;;5028019;28;19939;-58
2021/04/13 12:31:09;;;;;;;;;;;;;;;;;;5029671;28;19909;-55
2021/04/13 12:33:35;;;;;;;;;;;;;;;;;;5017701;28;19909;-58
2021/04/13 12:36:03;;;;;;;;;;;;;;;;;;5019748;28;19952;-57
2021/04/13 12:38:29;;;;;;;;;;;;;;;;;;5015158;28;20245;-59
2021/04/13 12:40:55;;;;;;;;;;;;;;;;;;5014883;28;19924;-57
2021/04/13 12:43:20;;;;;;;;;;;;;;;;;;5016950;28;19913;-57
2021/04/13 12:45:46;;;;;;;;;;;;;;;;;;5012929;28;19928;-57
2021/04/13 12:48:12;;;;;;;;;;;;;;;;;;5020246;28;20010;-57
2021/04/13 12:50:38;;;;;;;;;;;;;;;;;;5018176;28;20311;-58
2021/04/13 12:53:04;;;;;;;;;;;;;;;;;;5015040;28;19909;-58
2021/04/13 12:55:30;;;;;;;;;;;;;;;;;;5015245;28;20283;-58
2021/04/13 12:57:57;;;;;;;;;;;;;;;;;;5014039;28;19905;-57
2021/04/13 13:00:24;;;;;;;;;;;;;;;;;;5018050;28;19948;-57
2021/04/13 13:02:51;;;;;;;;;;;;;;;;;;5027097;28;20004;-57
2021/04/13 13:05:17;;;;;;;;;;;;;;;;;;5033265;28;19924;-57
2021/04/13 13:07:42;;;;;;;;;;;;;;;;;;5035589;28;19905;-57
2021/04/13 13:10:08;;;;;;;;;;;;;;;;;;5042593;28;20239;-56
2021/04/13 13:12:34;;;;;;;;;;;;;;;;;;5032093;28;19909;-63
2021/04/13 13:15:00;;;;;;;;;;;;;;;;;;5032230;28;19913;-57
2021/04/13 13:17:26;;;;;;;;;;;;;;;;;;5027057;28;19914;-57
2021/04/13 13:19:52;;;;;;;;;;;;;;;;;;5033476;28;19912;-57
2021/04/13 13:22:18;;;;;;;;;;;;;;;;;;5030741;28;19909;-57
2021/04/13 13:24:48;;;;;;;;;;;;;;;;;;5032203;28;20245;-57
2021/04/13 13:27:14;;;;;;;;;;;;;;;;;;5023258;28;19908;-57
2021/04/13 13:29:40;;;;;;;;;;;;;;;;;;5033020;28;19912;-57
2021/04/13 13:32:06;;;;;;;;;;;;;;;;;;5032677;28;20000;-57
2021/04/13 13:34:32;;;;;;;;;;;;;;;;;;5030044;28;19955;-57
2021/04/13 13:36:58;;;;;;;;;;;;;;;;;;5027090;28;20363;-56
2021/04/13 13:39:29;;;;;;;;;;;;;;;;;;5021191;28;20032;-57
2021/04/13 13:41:55;;;;;;;;;;;;;;;;;;5022602;28;19952;-56
2021/04/13 13:44:20;;;;;;;;;;;;;;;;;;5026900;28;19963;-57
2021/04/13 13:46:46;;;;;;;;;;;;;;;;;;5030918;28;19921;-56
2021/04/13 13:49:12;;;;;;;;;;;;;;;;;;5029866;28;19913;-57
2021/04/13 13:51:39;;;;;;;;;;;;;;;;;;5032269;28;19916;-56
2021/04/13 13:54:05;;;;;;;;;;;;;;;;;;5031066;28;19913;-56
2021/04/13 13:56:31;;;;;;;;;;;;;;;;;;5031068;28;19909;-57
2021/04/13 13:58:57;;;;;;;;;;;;;;;;;;5029263;28;19975;-57
2021/04/13 14:01:22;;;;;;;;;;;;;;;;;;5030439;28;19909;-57
2021/04/13 14:03:48;;;;;;;;;;;;;;;;;;5030170;28;20043;-63
2021/04/13 14:06:15;;;;;;;;;;;;;;;;;;5031144;28;19924;-57
2021/04/13 14:08:41;;;;;;;;;;;;;;;;;;5027456;28;20306;-57
2021/04/13 14:11:07;;;;;;;;;;;;;;;;;;5030308;28;19909;-57
2021/04/13 14:13:33;;;;;;;;;;;;;;;;;;5030693;28;19915;-56
2021/04/13 14:15:59;;;;;;;;;;;;;;;;;;5030536;28;19948;-56
2021/04/13 14:18:25;;;;;;;;;;;;;;;;;;5031066;28;20390;-57
2021/04/13 14:20:51;;;;;;;;;;;;;;;;;;5028331;28;19945;-58
2021/04/13 14:23:17;;;;;;;;;;;;;;;;;;5030720;28;19951;-58
2021/04/13 14:25:42;;;;;;;;;;;;;;;;;;5027346;28;19924;-57
2021/04/13 14:28:09;;;;;;;;;;;;;;;;;;5030747;28;19909;-56
2021/04/13 14:30:35;;;;;;;;;;;;;;;;;;5030587;28;19909;-55
2021/04/13 14:33:00;;;;;;;;;;;;;;;;;;5019510;28;19916;-59
2021/04/13 14:35:26;;;;;;;;;;;;;;;;;;5014163;28;19913;-56
2021/04/13 14:37:52;;;;;;;;;;;;;;;;;;5030044;28;20230;-57
2021/04/13 14:40:18;;;;;;;;;;;;;;;;;;5032209;28;19935;-55
2021/04/13 14:42:44;;;;;;;;;;;;;;;;;;5030979;28;19916;-56
2021/04/13 14:45:10;;;;;;;;;;;;;;;;;;5031878;28;19928;-55
2021/04/13 14:47:36;;;;;;;;;;;;;;;;;;5032748;28;19936;-55
2021/04/13 14:50:02;;;;;;;;;;;;;;;;;;5040801;28;19955;-56
2021/04/13 14:52:28;;;;;;;;;;;;;;;;;;5035926;28;19909;-58
2021/04/13 14:54:54;;;;;;;;;;;;;;;;;;5036471;28;20313;-56
2021/04/13 14:57:20;;;;;;;;;;;;;;;;;;5031111;28;19909;-56
2021/04/13 14:59:46;;;;;;;;;;;;;;;;;;5031187;28;20038;-54
2021/04/13 15:02:12;;;;;;;;;;;;;;;;;;5031420;28;19955;-65
2021/04/13 15:04:38;;;;;;;;;;;;;;;;;;5032053;28;19909;-58
2021/04/13 15:07:04;;;;;;;;;;;;;;;;;;5033788;28;19909;-63
2021/04/13 15:09:30;;;;;;;;;;;;;;;;;;5021547;28;20000;-63
2021/04/13 15:11:56;;;;;;;;;;;;;;;;;;5016828;28;20371;-63
2021/04/13 15:14:22;;;;;;;;;;;;;;;;;;5017733;28;19914;-64
2021/04/13 15:16:48;;;;;;;;;;;;;;;;;;5019235;28;19927;-65
2021/04/13 15:19:13;;;;;;;;;;;;;;;;;;5029892;28;19909;-65
2021/04/13 15:21:39;;;;;;;;;;;;;;;;;;5034298;28;19999;-64
2021/04/13 15:24:05;;;;;;;;;;;;;;;;;;5033492;28;20008;-65
2021/04/13 15:26:34;;;;;;;;;;;;;;;;;;5034755;28;19936;-66
2021/04/13 15:29:00;;;;;;;;;;;;;;;;;;5035614;28;19940;-65
2021/04/13 15:31:26;;;;;;;;;;;;;;;;;;5035625;28;19909;-66
2021/04/13 15:33:52;;;;;;;;;;;;;;;;;;5024765;28;20187;-63
2021/04/13 15:36:18;;;;;;;;;;;;;;;;;;5035040;28;19909;-65
2021/04/13 15:38:44;;;;;;;;;;;;;;;;;;5035395;28;19958;-64
2021/04/13 15:41:10;;;;;;;;;;;;;;;;;;5035304;28;19912;-67
2021/04/13 15:43:36;;;;;;;;;;;;;;;;;;5035196;28;19905;-64
2021/04/13 15:46:02;;;;;;;;;;;;;;;;;;5034924;28;19917;-63
2021/04/13 15:48:28;;;;;;;;;;;;;;;;;;5034093;28;19913;-64
2021/04/13 15:50:54;;;;;;;;;;;;;;;;;;5035482;28;19911;-66
2021/04/13 15:53:21;;;;;;;;;;;;;;;;;;5034660;28;19913;-64
2021/04/13 15:55:47;;;;;;;;;;;;;;;;;;5037951;28;19911;-63
2021/04/13 15:58:13;;;;;;;;;;;;;;;;;;5046338;28;19904;-63
2021/04/13 16:00:40;;;;;;;;;;;;;;;;;;5043165;28;20434;-63
2021/04/13 16:03:06;;;;;;;;;;;;;;;;;;5033481;28;19912;-65
2021/04/13 16:05:32;;;;;;;;;;;;;;;;;;5050051;28;19912;-63
2021/04/13 16:07:58;;;;;;;;;;;;;;;;;;5052449;28;19905;-62
2021/04/13 16:10:24;;;;;;;;;;;;;;;;;;5052197;28;19950;-64
2021/04/13 16:12:50;;;;;;;;;;;;;;;;;;5053477;28;19912;-62
2021/04/13 16:15:16;;;;;;;;;;;;;;;;;;5052812;28;19913;-63
2021/04/13 16:17:42;;;;;;;;;;;;;;;;;;5052387;28;19916;-64
2021/04/13 16:20:08;;;;;;;;;;;;;;;;;;5052431;28;20393;-63
2021/04/13 16:22:34;;;;;;;;;;;;;;;;;;5051918;28;19912;-65
2021/04/13 16:25:00;;;;;;;;;;;;;;;;;;5052301;28;19916;-64
2021/04/13 16:27:26;;;;;;;;;;;;;;;;;;5052200;28;20408;-64
2021/04/13 16:29:52;;;;;;;;;;;;;;;;;;5052052;28;19927;-62
2021/04/13 16:32:18;;;;;;;;;;;;;;;;;;5034164;28;19905;-63
2021/04/13 16:34:44;;;;;;;;;;;;;;;;;;5052112;28;19958;-62
2021/04/13 16:37:11;;;;;;;;;;;;;;;;;;5051365;28;19904;-62
2021/04/13 16:39:37;;;;;;;;;;;;;;;;;;5048992;28;19905;-62
2021/04/13 16:42:03;;;;;;;;;;;;;;;;;;5052188;28;19904;-63
2021/04/13 16:44:29;;;;;;;;;;;;;;;;;;5045837;28;20347;-62
2021/04/13 16:46:57;;;;;;;;;;;;;;;;;;5033057;28;19936;-64
2021/04/13 16:49:23;;;;;;;;;;;;;;;;;;5045081;28;20268;-63
2021/04/13 16:51:49;;;;;;;;;;;;;;;;;;5031737;28;19951;-63
2021/04/13 16:54:15;;;;;;;;;;;;;;;;;;5031798;28;19909;-63
2021/04/13 16:56:41;;;;;;;;;;;;;;;;;;5043352;28;19909;-64